Time;durP1;ratioP1;P1;durP2;ratioP2;P2;SDS_P1;SDS_P2;PMS_P1;PMS_P2;Temp;Humidity;BMP_temperature;BMP_pressure;BME280_temperature;BME280_humidity;BME280_pressure;Samples;Min_cycle;Max_cycle;Signal;HPM_P1;HPM_P2
2022/12/19 00:01:40;;;;;;;20.70;9.93;;;;;2.90;101149.00;;;;9810651;30;20211;-78
2022/12/19 00:06:42;;;;;;;20.43;8.70;;;;;3.00;101144.00;;;;9826814;30;20228;-79
2022/12/19 00:11:46;;;;;;;19.30;10.73;;;;;3.20;101132.00;;;;9826814;30;20283;-79
2022/12/19 00:16:48;;;;;;;23.47;9.27;;;;;3.20;101131.00;;;;9825273;30;20208;-78
2022/12/19 00:21:50;;;;;;;18.47;10.33;;;;;3.30;101123.00;;;;9804033;30;20259;-77
2022/12/19 00:26:51;;;;;;;16.93;9.53;;;;;3.40;101118.00;;;;9840943;30;20228;-77
2022/12/19 00:31:53;;;;;;;18.67;8.40;;;;;3.40;101104.00;;;;9825688;30;20546;-78
2022/12/19 00:36:55;;;;;;;17.03;8.67;;;;;3.50;101101.00;;;;9813381;30;20216;-78
2022/12/19 00:41:57;;;;;;;18.10;9.10;;;;;3.60;101107.00;;;;9822469;30;20660;-79
2022/12/19 00:46:59;;;;;;;14.60;8.10;;;;;3.70;101093.00;;;;9809519;30;20248;-78
2022/12/19 00:52:01;;;;;;;17.10;8.87;;;;;3.70;101104.00;;;;9816120;30;20740;-78
2022/12/19 00:57:04;;;;;;;17.00;8.03;;;;;3.80;101092.00;;;;9805795;30;20231;-78
2022/12/19 01:02:06;;;;;;;18.10;8.83;;;;;3.80;101088.00;;;;9821926;30;20201;-79
2022/12/19 01:07:09;;;;;;;16.03;7.13;;;;;3.90;101090.00;;;;9822355;30;20252;-80
2022/12/19 01:17:33;;;;;;;14.60;7.83;;;;;4.10;101086.00;;;;9801812;30;20205;-79
2022/12/19 01:22:45;;;;;;;16.23;7.50;;;;;4.20;101078.00;;;;9805358;30;20217;-79
2022/12/19 01:27:47;;;;;;;12.97;8.00;;;;;4.30;101075.00;;;;9788485;30;20617;-79
2022/12/19 01:32:49;;;;;;;13.20;5.97;;;;;4.40;101067.00;;;;9807567;30;20716;-79
2022/12/19 01:37:52;;;;;;;17.27;7.40;;;;;4.50;101070.00;;;;9814905;30;20270;-78
2022/12/19 01:43:13;;;;;;;13.33;6.93;;;;;4.70;101057.00;;;;9819411;30;20200;-78
2022/12/19 01:48:21;;;;;;;12.23;6.47;;;;;4.90;101052.00;;;;9822121;30;20993;-79
2022/12/19 01:53:26;;;;;;;15.33;5.97;;;;;5.00;101062.00;;;;9827021;30;20205;-78
2022/12/19 01:58:29;;;;;;;10.43;5.50;;;;;5.10;101053.00;;;;9829441;30;20205;-77
2022/12/19 02:03:33;;;;;;;10.93;5.40;;;;;5.20;101059.00;;;;9821124;30;20221;-78
2022/12/19 02:08:36;;;;;;;6.97;4.43;;;;;5.30;101054.00;;;;9831004;30;20220;-78
2022/12/19 02:13:39;;;;;;;8.53;4.83;;;;;5.30;101048.00;;;;9833400;30;20307;-78
2022/12/19 02:18:58;;;;;;;8.33;5.33;;;;;5.40;101056.00;;;;9846046;30;20239;-78
2022/12/19 02:24:08;;;;;;;13.37;5.83;;;;;5.50;101056.00;;;;9830377;30;20234;-78
2022/12/19 02:29:46;;;;;;;10.23;4.33;;;;;5.50;101042.00;;;;9809646;30;20221;-78
2022/12/19 02:35:16;;;;;;;9.80;4.90;;;;;5.50;101046.00;;;;9818224;30;20239;-79
2022/12/19 02:40:23;;;;;;;8.60;4.63;;;;;5.60;101040.00;;;;9831897;30;20205;-79
2022/12/19 02:45:29;;;;;;;6.10;4.07;;;;;5.70;101029.00;;;;9826983;30;20280;-79
2022/12/19 02:50:40;;;;;;;8.80;5.10;;;;;5.70;101027.00;;;;9829874;30;20205;-78
2022/12/19 02:56:24;;;;;;;12.97;4.03;;;;;5.70;101025.00;;;;9842745;30;20275;-79
2022/12/19 03:01:34;;;;;;;9.70;4.63;;;;;5.70;101020.00;;;;9817335;30;20204;-78
2022/12/19 03:06:48;;;;;;;6.80;3.90;;;;;5.80;101023.00;;;;9821529;30;20244;-79
2022/12/19 03:11:59;;;;;;;8.73;5.20;;;;;5.80;101016.00;;;;9841682;30;20299;-79
2022/12/19 03:17:06;;;;;;;6.50;3.50;;;;;5.80;101008.00;;;;9806544;30;20234;-77
2022/12/19 03:22:08;;;;;;;9.00;5.60;;;;;5.80;101003.00;;;;9792297;30;20233;-78
2022/12/19 03:27:20;;;;;;;9.83;4.87;;;;;5.80;101006.00;;;;9849610;30;20688;-78
2022/12/19 03:32:24;;;;;;;6.83;4.33;;;;;5.80;101004.00;;;;9814264;30;20213;-79
2022/12/19 03:37:30;;;;;;;9.47;4.80;;;;;5.90;101001.00;;;;9810716;30;20204;-78
2022/12/19 03:48:04;;;;;;;8.07;4.33;;;;;6.00;101000.00;;;;9827136;30;20231;-78
2022/12/19 03:53:35;;;;;;;7.50;4.47;;;;;6.00;100996.00;;;;9820220;30;20262;-78
2022/12/19 03:58:41;;;;;;;7.37;5.13;;;;;6.10;101012.00;;;;9828286;30;20546;-78
2022/12/19 04:03:43;;;;;;;8.33;4.13;;;;;6.10;101002.00;;;;9813791;30;20947;-77
2022/12/19 04:08:45;;;;;;;7.37;5.00;;;;;6.10;101013.00;;;;9827394;30;20204;-78
2022/12/19 04:13:57;;;;;;;8.53;4.60;;;;;6.10;101011.00;;;;9842424;30;20604;-78
2022/12/19 04:19:24;;;;;;;5.97;4.23;;;;;6.20;101004.00;;;;9823040;30;20232;-78
2022/12/19 04:24:29;;;;;;;9.80;5.33;;;;;6.20;101002.00;;;;9834519;30;20302;-78
2022/12/19 04:29:34;;;;;;;9.67;4.43;;;;;6.20;101018.00;;;;9857100;30;20201;-78
2022/12/19 04:34:36;;;;;;;8.50;4.90;;;;;6.20;101009.00;;;;9815571;30;20198;-78
2022/12/19 04:39:43;;;;;;;6.03;4.20;;;;;6.30;101005.00;;;;9820924;30;20208;-78
2022/12/19 04:44:45;;;;;;;8.10;4.67;;;;;6.40;101003.00;;;;9811915;30;20220;-78
2022/12/19 04:49:47;;;;;;;13.00;4.80;;;;;6.40;101012.00;;;;9810463;30;20208;-79
2022/12/19 04:54:49;;;;;;;7.03;4.13;;;;;6.40;101001.00;;;;9818286;30;20201;-78
2022/12/19 04:59:51;;;;;;;5.90;3.70;;;;;6.50;101007.00;;;;9826461;30;21032;-78
2022/12/19 05:04:52;;;;;;;4.80;3.00;;;;;6.60;100992.00;;;;9819336;30;20233;-78
2022/12/19 05:09:57;;;;;;;7.17;3.83;;;;;6.60;100990.00;;;;9815387;30;20683;-79
2022/12/19 05:14:59;;;;;;;7.57;3.67;;;;;6.70;100987.00;;;;9818587;30;20200;-78
2022/12/19 05:20:01;;;;;;;7.63;3.40;;;;;6.80;100999.00;;;;9812928;30;20204;-79
2022/12/19 05:25:03;;;;;;;5.40;3.30;;;;;6.90;100997.00;;;;9847098;30;20208;-79
2022/12/19 05:30:06;;;;;;;8.27;3.37;;;;;6.90;101016.00;;;;9848724;30;20200;-80
2022/12/19 05:35:08;;;;;;;5.73;4.03;;;;;7.00;101008.00;;;;9815846;30;20201;-78
2022/12/19 05:40:10;;;;;;;8.23;3.30;;;;;7.00;101017.00;;;;9803192;30;20208;-79
2022/12/19 05:45:12;;;;;;;6.53;4.23;;;;;6.90;101021.00;;;;9847273;30;20721;-79
2022/12/19 05:50:15;;;;;;;5.27;3.67;;;;;7.00;101015.00;;;;9847400;30;20204;-79
2022/12/19 05:55:24;;;;;;;10.00;3.93;;;;;7.00;101022.00;;;;9833840;30;20287;-79
2022/12/19 06:00:26;;;;;;;4.87;3.27;;;;;7.00;101033.00;;;;9833921;30;20203;-79
2022/12/19 06:05:29;;;;;;;8.47;4.47;;;;;7.00;101030.00;;;;9812219;30;20279;-80
2022/12/19 06:10:31;;;;;;;8.60;4.33;;;;;7.00;101023.00;;;;9827339;30;20200;-80
2022/12/19 06:15:33;;;;;;;6.20;4.03;;;;;7.00;101000.00;;;;9834210;30;20268;-80
2022/12/19 06:20:35;;;;;;;7.13;4.00;;;;;7.10;101022.00;;;;9827125;30;20239;-79
2022/12/19 06:25:37;;;;;;;6.00;3.53;;;;;7.10;101019.00;;;;9829715;30;20213;-81
2022/12/19 06:30:39;;;;;;;7.90;4.27;;;;;7.10;101017.00;;;;9835530;30;20627;-79
2022/12/19 06:35:41;;;;;;;6.20;4.33;;;;;7.10;101004.00;;;;9815359;30;20201;-80
2022/12/19 06:46:04;;;;;;;6.90;3.83;;;;;7.10;101007.00;;;;9834594;30;20224;-80
2022/12/19 06:51:06;;;;;;;6.40;4.37;;;;;7.20;101006.00;;;;9815418;30;20619;-80
2022/12/19 06:56:10;;;;;;;8.50;5.07;;;;;7.20;101008.00;;;;9825714;30;20296;-80
2022/12/19 07:01:18;;;;;;;7.53;4.53;;;;;7.20;101014.00;;;;9797378;30;20212;-79
2022/12/19 07:06:20;;;;;;;8.97;4.57;;;;;7.20;100984.00;;;;9782633;30;20261;-80
2022/12/19 07:11:22;;;;;;;5.97;4.27;;;;;7.30;100998.00;;;;9831635;30;20208;-81
2022/12/19 07:16:25;;;;;;;6.60;4.00;;;;;7.40;101000.00;;;;9816575;30;20204;-79
2022/12/19 07:21:28;;;;;;;7.00;4.53;;;;;7.40;100997.00;;;;9846073;30;20207;-79
2022/12/19 07:26:30;;;;;;;7.43;4.17;;;;;7.40;100993.00;;;;9830690;30;20217;-80
2022/12/19 07:31:32;;;;;;;5.70;4.33;;;;;7.50;101009.00;;;;9794299;30;20215;-79
2022/12/19 07:36:35;;;;;;;8.33;4.87;;;;;7.50;101003.00;;;;9843775;30;20215;-79
2022/12/19 07:41:37;;;;;;;7.63;4.23;;;;;7.50;101009.00;;;;9821281;30;20269;-80
2022/12/19 07:46:39;;;;;;;7.40;4.90;;;;;7.40;101022.00;;;;9800719;30;20236;-79
2022/12/19 07:51:41;;;;;;;7.10;3.50;;;;;7.50;101016.00;;;;9812602;30;20209;-81
2022/12/19 07:56:43;;;;;;;8.40;4.03;;;;;7.50;101008.00;;;;9800888;30;20204;-80
2022/12/19 08:01:45;;;;;;;5.97;3.57;;;;;7.60;101005.00;;;;9825826;30;20201;-80
2022/12/19 08:06:47;;;;;;;6.83;4.30;;;;;7.70;101020.00;;;;9828076;30;20224;-81
2022/12/19 08:11:49;;;;;;;7.13;4.03;;;;;7.80;101036.00;;;;9829044;30;20235;-80
2022/12/19 08:16:51;;;;;;;6.63;4.67;;;;;7.90;101050.00;;;;9811311;30;20207;-80
2022/12/19 08:22:13;;;;;;;6.83;3.63;;;;;7.90;101059.00;;;;9810727;30;20216;-80
2022/12/19 08:27:16;;;;;;;6.07;3.90;;;;;7.90;101073.00;;;;9823018;30;20228;-80
2022/12/19 08:32:18;;;;;;;5.87;3.67;;;;;8.00;101085.00;;;;9819734;30;20274;-81
2022/12/19 08:37:22;;;;;;;4.07;2.77;;;;;8.00;101077.00;;;;9839831;30;20526;-81
2022/12/19 08:42:24;;;;;;;5.43;4.03;;;;;8.10;101081.00;;;;9832293;30;20756;-81
2022/12/19 08:47:26;;;;;;;6.80;4.23;;;;;8.10;101071.00;;;;9814570;30;20231;-80
2022/12/19 08:52:28;;;;;;;6.53;3.73;;;;;8.30;101058.00;;;;9836406;30;20209;-80
2022/12/19 08:57:30;;;;;;;6.23;4.13;;;;;8.40;101049.00;;;;9823688;30;20210;-80
2022/12/19 09:02:32;;;;;;;7.60;2.83;;;;;8.40;101055.00;;;;9805697;30;20211;-82
2022/12/19 09:07:35;;;;;;;5.10;3.50;;;;;8.50;101052.00;;;;9857311;30;20232;-80
2022/12/19 09:12:39;;;;;;;5.23;3.07;;;;;8.50;101074.00;;;;9829547;30;20669;-80
2022/12/19 09:17:41;;;;;;;3.77;3.10;;;;;8.60;101073.00;;;;9810708;30;20207;-80
2022/12/19 09:22:43;;;;;;;5.67;3.03;;;;;8.60;101072.00;;;;9813463;30;20660;-80
2022/12/19 09:27:46;;;;;;;10.03;4.10;;;;;8.60;101064.00;;;;9826509;30;20231;-80
2022/12/19 09:33:08;;;;;;;9.53;4.10;;;;;8.60;101096.00;;;;9824392;30;20291;-80
2022/12/19 09:38:10;;;;;;;3.63;2.80;;;;;8.60;101093.00;;;;9812574;30;20296;-80
2022/12/19 09:43:41;;;;;;;4.30;2.73;;;;;8.50;101088.00;;;;9828075;30;20208;-81
2022/12/19 09:48:51;;;;;;;5.73;3.27;;;;;8.30;101100.00;;;;9806514;30;20636;-81
2022/12/19 09:54:15;;;;;;;4.20;3.13;;;;;8.30;101099.00;;;;9817453;30;20208;-80
2022/12/19 09:59:31;;;;;;;7.90;3.17;;;;;8.20;101095.00;;;;9804191;30;20197;-80
2022/12/19 10:04:49;;;;;;;5.03;2.90;;;;;8.30;101108.00;;;;9814019;30;20247;-82
2022/12/19 10:10:15;;;;;;;6.10;3.90;;;;;8.20;101105.00;;;;9807563;30;20278;-80
2022/12/19 10:15:50;;;;;;;4.97;3.47;;;;;8.30;101113.00;;;;9805807;30;20304;-81
2022/12/19 10:21:07;;;;;;;4.57;3.00;;;;;8.30;101105.00;;;;9812490;30;20392;-80
2022/12/19 10:26:19;;;;;;;5.33;2.77;;;;;8.40;101108.00;;;;9817096;30;20216;-80
2022/12/19 10:31:29;;;;;;;4.57;2.63;;;;;8.60;101101.00;;;;9825313;30;20603;-80
2022/12/19 10:36:38;;;;;;;4.73;2.93;;;;;8.90;101089.00;;;;9812204;30;20270;-80
2022/12/19 10:42:45;;;;;;;5.03;2.77;;;;;9.30;101082.00;;;;9827968;30;20660;-80
2022/12/19 10:47:54;;;;;;;5.47;3.30;;;;;9.50;101068.00;;;;9794206;30;20903;-80
2022/12/19 10:53:02;;;;;;;5.30;2.50;;;;;9.80;101063.00;;;;9812162;30;20224;-80
2022/12/19 10:58:27;;;;;;;3.90;2.57;;;;;10.00;101054.00;;;;9805401;30;20201;-80
2022/12/19 11:03:33;;;;;;;2.93;2.50;;;;;10.20;101050.00;;;;9813427;30;20209;-80
2022/12/19 11:08:36;;;;;;;3.43;2.50;;;;;10.40;101039.00;;;;9807818;30;20251;-82
2022/12/19 11:13:43;;;;;;;2.90;2.20;;;;;10.70;101048.00;;;;9799176;30;20822;-81
2022/12/19 11:19:19;;;;;;;4.17;2.60;;;;;10.80;101053.00;;;;9820278;30;20265;-82
2022/12/19 11:24:49;;;;;;;3.27;2.20;;;;;10.90;101044.00;;;;9804933;30;20214;-80
2022/12/19 11:30:14;;;;;;;3.13;1.83;;;;;11.20;101042.00;;;;9833289;30;20204;-80
2022/12/19 11:35:49;;;;;;;4.93;2.13;;;;;11.50;101038.00;;;;9822351;30;20642;-80
2022/12/19 11:40:55;;;;;;;3.53;2.47;;;;;11.70;101032.00;;;;9811515;30;20215;-80
2022/12/19 11:46:09;;;;;;;2.37;1.90;;;;;11.50;101033.00;;;;9804986;30;20217;-80
2022/12/19 11:52:00;;;;;;;3.27;2.20;;;;;11.40;101021.00;;;;9828880;30;20296;-80
2022/12/19 11:57:02;;;;;;;3.20;2.33;;;;;11.40;101023.00;;;;9777108;30;20292;-80
2022/12/19 12:02:42;;;;;;;3.40;2.40;;;;;11.30;101006.00;;;;9814007;30;20232;-80
2022/12/19 12:07:52;;;;;;;2.77;2.33;;;;;11.40;101004.00;;;;9812704;30;20316;-81
2022/12/19 12:13:44;;;;;;;2.37;1.90;;;;;11.40;101009.00;;;;9817631;30;20854;-80
2022/12/19 12:19:25;;;;;;;3.33;1.60;;;;;11.10;101001.00;;;;9825377;30;20200;-80
2022/12/19 12:24:53;;;;;;;3.03;2.00;;;;;11.00;100999.00;;;;9836152;30;20197;-80
2022/12/19 12:30:18;;;;;;;4.07;2.10;;;;;11.10;100978.00;;;;9800795;30;20197;-79
2022/12/19 12:36:03;;;;;;;3.70;2.13;;;;;11.40;100974.00;;;;9787734;30;20204;-80
2022/12/19 12:42:04;;;;;;;2.77;2.20;;;;;11.50;100969.00;;;;9793354;30;20283;-80
2022/12/19 12:47:21;;;;;;;2.53;1.90;;;;;11.40;100946.00;;;;9814463;30;20632;-80
2022/12/19 12:52:33;;;;;;;2.00;1.80;;;;;11.40;100943.00;;;;9792649;30;20208;-79
2022/12/19 12:57:37;;;;;;;3.37;1.77;;;;;11.20;100943.00;;;;9812457;30;20212;-79
2022/12/19 13:02:39;;;;;;;2.03;1.80;;;;;11.00;100930.00;;;;9818719;30;20947;-79
2022/12/19 13:07:49;;;;;;;3.17;1.90;;;;;10.90;100930.00;;;;9808249;30;20759;-79
2022/12/19 13:13:02;;;;;;;2.40;1.97;;;;;10.80;100937.00;;;;9793201;30;20214;-80
2022/12/19 13:18:10;;;;;;;6.27;2.20;;;;;10.70;100947.00;;;;9816527;30;20226;-80
2022/12/19 13:23:32;;;;;;;6.80;3.03;;;;;10.70;100951.00;;;;9838303;30;20581;-79
2022/12/19 13:28:40;;;;;;;2.70;1.50;;;;;10.80;100953.00;;;;9814056;30;20224;-79
2022/12/19 13:33:51;;;;;;;2.57;1.80;;;;;10.80;100927.00;;;;9820380;30;20977;-80
2022/12/19 13:38:58;;;;;;;2.50;1.63;;;;;11.00;100926.00;;;;9835646;30;20227;-79
2022/12/19 13:44:21;;;;;;;2.00;1.60;;;;;11.10;100903.00;;;;9826918;30;20669;-79
2022/12/19 13:49:32;;;;;;;2.90;1.60;;;;;11.10;100907.00;;;;9803138;30;20231;-79
2022/12/19 13:54:49;;;;;;;4.77;1.67;;;;;11.20;100902.00;;;;9807098;30;20200;-79
2022/12/19 13:59:54;;;;;;;3.63;2.77;;;;;11.10;100898.00;;;;9825373;30;20208;-79
2022/12/19 14:05:02;;;;;;;3.87;2.07;;;;;11.20;100888.00;;;;9832062;30;20237;-79
2022/12/19 14:10:13;;;;;;;1.73;1.60;;;;;11.40;100886.00;;;;9813861;30;20215;-79
2022/12/19 14:15:42;;;;;;;2.47;1.50;;;;;11.40;100896.00;;;;9822708;30;20241;-79
2022/12/19 14:20:46;;;;;;;2.70;2.00;;;;;11.30;100905.00;;;;9817461;30;20699;-78
2022/12/19 14:26:32;;;;;;;2.97;1.50;;;;;11.00;100878.00;;;;9821456;30;20227;-78
2022/12/19 14:31:54;;;;;;;5.13;1.80;;;;;11.00;100895.00;;;;9837540;30;20211;-79
2022/12/19 14:37:29;;;;;;;2.67;1.60;;;;;11.00;100887.00;;;;9842021;30;20284;-79
2022/12/19 14:48:48;;;;;;;1.77;1.57;;;;;10.70;100895.00;;;;9826488;30;20228;-79
2022/12/19 14:54:10;;;;;;;3.80;1.90;;;;;10.60;100885.00;;;;9840980;30;20212;-79
2022/12/19 14:59:34;;;;;;;2.93;1.70;;;;;10.50;100907.00;;;;9833123;30;20258;-79
2022/12/19 15:04:43;;;;;;;2.47;1.97;;;;;10.40;100910.00;;;;9823621;30;20379;-78
2022/12/19 15:10:08;;;;;;;4.67;2.27;;;;;10.30;100918.00;;;;9823550;30;20244;-79
2022/12/19 15:15:53;;;;;;;2.53;2.03;;;;;10.30;100922.00;;;;9814499;30;20280;-78
2022/12/19 15:20:58;;;;;;;1.90;1.53;;;;;10.30;100911.00;;;;9854706;30;20196;-79
2022/12/19 15:26:02;;;;;;;5.17;2.07;;;;;10.30;100910.00;;;;9824660;30;20254;-77
2022/12/19 15:31:33;;;;;;;2.63;2.30;;;;;10.40;100879.00;;;;9819309;30;20582;-78
2022/12/19 15:36:35;;;;;;;2.47;1.97;;;;;10.40;100888.00;;;;9791919;30;20673;-78
2022/12/19 15:41:37;;;;;;;2.60;1.83;;;;;10.30;100909.00;;;;9822482;30;20642;-78
2022/12/19 15:46:39;;;;;;;3.83;2.37;;;;;10.30;100919.00;;;;9813520;30;20281;-79
2022/12/19 15:51:49;;;;;;;3.33;2.47;;;;;10.20;100946.00;;;;9824730;30;20212;-79
2022/12/19 15:56:53;;;;;;;4.10;2.20;;;;;10.20;100944.00;;;;9831791;30;20595;-79
2022/12/19 16:01:56;;;;;;;3.57;2.60;;;;;10.30;100954.00;;;;9808753;30;20212;-79
2022/12/19 16:06:58;;;;;;;3.63;2.30;;;;;10.20;100950.00;;;;9810996;30;20240;-78
2022/12/19 16:12:00;;;;;;;4.03;1.70;;;;;10.20;100928.00;;;;9807816;30;20208;-78
2022/12/19 16:17:02;;;;;;;5.07;2.10;;;;;10.20;100917.00;;;;9838544;30;20753;-78
2022/12/19 16:22:17;;;;;;;5.00;2.10;;;;;10.20;100903.00;;;;9831934;30;20208;-78
2022/12/19 16:27:25;;;;;;;3.20;2.20;;;;;10.30;100906.00;;;;9812813;30;20231;-78
2022/12/19 16:32:27;;;;;;;5.10;2.10;;;;;10.30;100893.00;;;;9774468;30;20189;-78
2022/12/19 16:37:28;;;;;;;3.20;1.93;;;;;10.30;100893.00;;;;9789386;30;20231;-79
2022/12/19 16:42:33;;;;;;;6.07;2.20;;;;;10.30;100896.00;;;;9812894;30;20300;-78
2022/12/19 16:47:35;;;;;;;4.37;2.17;;;;;10.20;100902.00;;;;9816072;30;20225;-78
2022/12/19 16:52:37;;;;;;;3.93;2.27;;;;;10.30;100910.00;;;;9828761;30;20192;-79
2022/12/19 16:57:45;;;;;;;3.27;2.10;;;;;10.20;100922.00;;;;9827012;30;20258;-78
2022/12/19 17:03:16;;;;;;;3.03;1.93;;;;;10.20;100919.00;;;;9823578;30;20251;-78
2022/12/19 17:08:19;;;;;;;3.10;2.00;;;;;10.10;100912.00;;;;9789749;30;20658;-78
2022/12/19 17:13:22;;;;;;;4.17;2.50;;;;;10.10;100891.00;;;;9808508;30;20215;-79
2022/12/19 17:18:32;;;;;;;3.23;2.10;;;;;10.10;100892.00;;;;9829400;30;20344;-78
2022/12/19 17:23:33;;;;;;;3.77;2.40;;;;;10.10;100896.00;;;;9823837;30;20209;-78
2022/12/19 17:28:35;;;;;;;2.70;2.33;;;;;10.10;100900.00;;;;9794286;30;20636;-79
2022/12/19 17:33:39;;;;;;;5.33;2.40;;;;;10.10;100890.00;;;;9826780;30;20711;-80
2022/12/19 17:38:41;;;;;;;4.50;2.30;;;;;10.10;100894.00;;;;9829327;30;20196;-78
2022/12/19 17:43:44;;;;;;;2.10;1.90;;;;;10.10;100885.00;;;;9829737;30;20211;-78
2022/12/19 17:48:49;;;;;;;3.60;2.20;;;;;10.20;100885.00;;;;9812850;30;20257;-78
2022/12/19 17:53:51;;;;;;;4.17;2.80;;;;;10.20;100882.00;;;;9827368;30;20260;-79
2022/12/19 17:58:55;;;;;;;3.57;2.13;;;;;10.20;100883.00;;;;9844291;30;20752;-80
2022/12/19 18:03:58;;;;;;;3.07;2.30;;;;;10.20;100891.00;;;;9828099;30;20230;-79
2022/12/19 18:09:02;;;;;;;9.57;2.50;;;;;10.20;100904.00;;;;9828839;30;20228;-78
2022/12/19 18:14:03;;;;;;;2.70;2.37;;;;;10.20;100886.00;;;;9814096;30;20504;-78
2022/12/19 18:19:06;;;;;;;3.40;2.33;;;;;10.20;100884.00;;;;9814012;30;20200;-79
2022/12/19 18:24:11;;;;;;;4.03;2.40;;;;;10.10;100898.00;;;;9829324;30;20204;-79
2022/12/19 18:29:13;;;;;;;2.80;1.83;;;;;10.00;100907.00;;;;9791701;30;20233;-78
2022/12/19 18:34:22;;;;;;;3.33;2.40;;;;;10.00;100903.00;;;;9826513;30;20239;-79
2022/12/19 18:39:26;;;;;;;4.30;2.50;;;;;10.10;100908.00;;;;9824535;30;20231;-79
2022/12/19 18:44:28;;;;;;;2.93;2.20;;;;;10.10;100913.00;;;;9828919;30;20197;-80
2022/12/19 18:49:35;;;;;;;4.80;2.40;;;;;10.00;100919.00;;;;9826796;30;20891;-80
2022/12/19 18:54:37;;;;;;;5.93;2.60;;;;;10.00;100924.00;;;;9819996;30;20232;-79
2022/12/19 18:59:39;;;;;;;2.40;1.90;;;;;9.90;100928.00;;;;9815429;30;20245;-78
2022/12/19 19:04:41;;;;;;;5.60;2.30;;;;;9.90;100916.00;;;;9825968;30;20278;-78
2022/12/19 19:09:43;;;;;;;3.40;2.50;;;;;9.90;100895.00;;;;9826088;30;20219;-78
2022/12/19 19:15:06;;;;;;;4.43;2.30;;;;;9.80;100892.00;;;;9807753;30;20739;-78
2022/12/19 19:20:08;;;;;;;4.13;2.30;;;;;9.80;100897.00;;;;9802808;30;20546;-78
2022/12/19 19:25:11;;;;;;;4.27;2.30;;;;;9.80;100895.00;;;;9806664;30;20220;-79
2022/12/19 19:30:13;;;;;;;2.80;2.30;;;;;9.80;100897.00;;;;9825347;30;20634;-78
2022/12/19 19:35:18;;;;;;;5.67;2.13;;;;;9.80;100898.00;;;;9804300;30;20255;-79
2022/12/19 19:40:20;;;;;;;5.33;2.47;;;;;9.70;100898.00;;;;9815429;30;20201;-78
2022/12/19 19:45:22;;;;;;;3.50;2.60;;;;;9.70;100915.00;;;;9825869;30;20220;-78
2022/12/19 19:50:24;;;;;;;3.80;2.50;;;;;9.70;100908.00;;;;9839922;30;20608;-78
2022/12/19 19:55:26;;;;;;;2.87;1.97;;;;;9.70;100910.00;;;;9806728;30;20262;-78
2022/12/19 20:00:28;;;;;;;3.47;2.20;;;;;9.70;100909.00;;;;9824446;30;20193;-78
2022/12/19 20:05:30;;;;;;;3.50;1.90;;;;;9.80;100917.00;;;;9820304;30;20294;-79
2022/12/19 20:10:32;;;;;;;3.60;2.27;;;;;9.90;100895.00;;;;9802461;30;20633;-79
2022/12/19 20:15:34;;;;;;;2.87;2.10;;;;;9.90;100911.00;;;;9796052;30;20205;-79
2022/12/19 20:20:37;;;;;;;4.57;2.07;;;;;10.20;100923.00;;;;9805825;30;20545;-79
2022/12/19 20:25:40;;;;;;;4.80;1.90;;;;;10.40;100917.00;;;;9839084;30;20208;-78
2022/12/19 20:30:43;;;;;;;5.23;1.87;;;;;10.60;100932.00;;;;9823673;30;20223;-80
2022/12/19 20:35:45;;;;;;;2.60;1.80;;;;;10.60;100930.00;;;;9837388;30;20763;-79
2022/12/19 20:40:47;;;;;;;2.67;2.17;;;;;10.60;100933.00;;;;9839828;30;20204;-79
2022/12/19 20:45:50;;;;;;;1.90;1.70;;;;;10.50;100943.00;;;;9809939;30;20205;-80
2022/12/19 20:51:00;;;;;;;3.50;1.63;;;;;10.40;100938.00;;;;9823300;30;20228;-78
2022/12/19 20:56:04;;;;;;;3.00;2.00;;;;;10.20;100921.00;;;;9786996;30;20622;-79
2022/12/19 21:01:10;;;;;;;2.50;2.10;;;;;10.30;100933.00;;;;9816327;30;20225;-79
2022/12/19 21:06:14;;;;;;;3.93;2.10;;;;;10.50;100945.00;;;;9815526;30;20236;-79
2022/12/19 21:11:16;;;;;;;4.77;2.53;;;;;10.60;100939.00;;;;9815717;30;20205;-78
2022/12/19 21:16:20;;;;;;;4.83;1.90;;;;;10.70;100957.00;;;;9846398;30;20844;-80
2022/12/19 21:21:24;;;;;;;3.27;1.60;;;;;10.90;100947.00;;;;9837107;30;20205;-79
2022/12/19 21:26:26;;;;;;;3.33;1.90;;;;;11.00;100946.00;;;;9836421;30;20731;-80
2022/12/19 21:31:29;;;;;;;2.23;1.57;;;;;11.00;100950.00;;;;9822907;30;20628;-78
2022/12/19 21:36:31;;;;;;;6.93;1.90;;;;;11.00;100928.00;;;;9810069;30;20201;-78
2022/12/19 21:41:33;;;;;;;2.47;1.73;;;;;11.00;100944.00;;;;9837575;30;20204;-78
2022/12/19 21:46:36;;;;;;;2.93;2.40;;;;;10.90;100916.00;;;;9827714;30;20228;-78
2022/12/19 21:51:38;;;;;;;3.83;2.30;;;;;10.80;100915.00;;;;9826200;30;20824;-79
2022/12/19 21:56:40;;;;;;;3.27;1.60;;;;;10.80;100894.00;;;;9821254;30;20291;-78
2022/12/19 22:01:43;;;;;;;6.83;1.60;;;;;10.70;100888.00;;;;9830313;30;20205;-78
2022/12/19 22:06:45;;;;;;;3.60;1.87;;;;;10.60;100884.00;;;;9836044;30;20236;-78
2022/12/19 22:11:47;;;;;;;4.87;1.70;;;;;10.50;100880.00;;;;9843849;30;20204;-78
2022/12/19 22:16:49;;;;;;;2.27;1.90;;;;;10.50;100902.00;;;;9827968;30;20553;-78
2022/12/19 22:21:51;;;;;;;4.40;1.77;;;;;10.50;100901.00;;;;9843203;30;20661;-78
2022/12/19 22:26:53;;;;;;;2.53;2.07;;;;;10.50;100903.00;;;;9828390;30;20216;-79
2022/12/19 22:31:55;;;;;;;3.43;2.13;;;;;10.50;100903.00;;;;9806048;30;20240;-79
2022/12/19 22:36:57;;;;;;;4.50;2.00;;;;;10.50;100891.00;;;;9791255;30;20201;-78
2022/12/19 22:41:59;;;;;;;2.60;1.87;;;;;10.50;100885.00;;;;9822617;30;20205;-79
2022/12/19 22:47:01;;;;;;;4.57;1.83;;;;;10.40;100889.00;;;;9827679;30;20216;-80
2022/12/19 22:52:03;;;;;;;2.83;1.83;;;;;10.60;100883.00;;;;9841389;30;20234;-78
2022/12/19 22:57:05;;;;;;;2.57;1.67;;;;;10.60;100860.00;;;;9827792;30;20742;-78
2022/12/19 23:02:07;;;;;;;3.03;1.60;;;;;10.70;100861.00;;;;9813083;30;20275;-79
2022/12/19 23:07:09;;;;;;;2.87;1.37;;;;;10.80;100864.00;;;;9819064;30;20281;-78
2022/12/19 23:12:11;;;;;;;1.73;1.50;;;;;10.80;100859.00;;;;9832418;30;20275;-78
2022/12/19 23:17:13;;;;;;;3.50;1.60;;;;;10.90;100862.00;;;;9842178;30;20204;-78
2022/12/19 23:22:15;;;;;;;4.43;2.07;;;;;11.00;100865.00;;;;9826827;30;20212;-79
2022/12/19 23:27:18;;;;;;;3.30;2.00;;;;;11.00;100866.00;;;;9820633;30;20221;-78
2022/12/19 23:32:20;;;;;;;2.40;1.70;;;;;11.00;100878.00;;;;9805096;30;20204;-80
2022/12/19 23:37:22;;;;;;;2.50;1.90;;;;;11.10;100863.00;;;;9803094;30;20240;-79
2022/12/19 23:42:24;;;;;;;2.03;1.50;;;;;11.10;100864.00;;;;9823391;30;20562;-78
2022/12/19 23:47:26;;;;;;;1.70;1.60;;;;;11.20;100865.00;;;;9811419;30;20216;-78
2022/12/19 23:52:28;;;;;;;2.00;1.80;;;;;11.30;100863.00;;;;9825552;30;20247;-79
2022/12/19 23:57:30;;;;;;;2.13;1.87;;;;;11.30;100882.00;;;;9830540;30;20196;-78
